Terminal Aerodrome Forecast
Issued by NWS

Home | Current Version | Previous Version | Text Only | Print | Product List | Glossary On
Versions: 1 2 3 4 5 6 7 8 9 10 11 12 13 14 15 16 17 18 19 20 21 22 23 24 25 26 27 28 29 30 31 32 33
000
FTUS43 KGLD 312320
TAFMCK
TAF
KMCK 312320Z 0100/0124 02010G16KT 1 1/2SM -SN BR OVC003
      TEMPO 0100/0103 OVC010
     FM010600 35015G25KT 1 1/2SM -SN BLSN BR OVC004
     FM011200 34020G30KT P6SM -SHSN OVC015
     FM011900 33020G30KT P6SM BKN025 BKN050=

USA.gov is the U.S. government's official web portal to all federal, state and local government web resources and services.